LRCL - CLUJ NAPOCA / AVRAM IANCU

Compiled: 17:57:31 on 22/07/2018

Latest METAR/SPECI Reports

METAR LRCL 221730Z 24008KT 9999 -RA FEW047CB BKN061 20/19 Q1009 R07/29//95=

Previous reports

METAR LRCL 221700Z 28007KT 9999 -SHRA SCT053CB BKN068 20/18 Q1009=
METAR LRCL 221630Z 27009KT 9999 -SHRA SCT053CB BKN068 21/17 Q1010=
METAR LRCL 221600Z 26010KT 9999 FEW053 SCT060CB 24/16 Q1010=
METAR LRCL 221530Z 23006KT 9999 FEW046 SCT055CB 24/16 Q1009=

Latest TAF report

TAF LRCL 221700Z 2218/2303 27007KT 9999 SCT040CB BKN060 PROB30 TEMPO 2218/2219 5000 -SHRA BECMG 2219/2221 NSC PROB30 TEMPO 2221/2303 SCT040CB=

Valid WARNINGS

No valid warnings for LRCL